Legend Of The Seas — C6SL5 — position and weather

sailwx.info

Track history (hours):
 
Tides and Currents Weather Stations Pressure Air Temp Water Temp Dewpoint Dewpoint Depression Visibility Wind Speed Wind Dir Waves Ship Positions

Legend Of The Seas

Operator: Royal Caribbean Cruises Ltd

Last reported at 2018-May-15 17:32 UTC. Time now 2018-May-26 13:57 UTC.
Position N 44°17' E 013°11'.
Warning: this ship's position is 10 days out of date.

Type: Passenger vessel. MMSI: 311378000.

Date/timePositionNaut miles runAvg speedWind from/ knotsBaromVisibWave heightAir tempDewpointWater temp
2018-May-15 17:32N 44°17' E 013°11'216.2
2018-May-15 17:27N 44°18' E 013°10'716.3
2018-May-15 17:00N 44°25' E 013°07'815.7
2018-May-15 16:30N 44°33' E 013°04'815.9
2018-May-15 16:00N 44°40' E 013°01'815.9
2018-May-15 15:30N 44°48' E 012°57'816.0
2018-May-15 15:00N 44°55' E 012°51'815.8
2018-May-15 14:30N 45°02' E 012°46'815.5
2018-May-15 14:00N 45°08' E 012°39'714.7
2018-May-15 13:30N 45°13' E 012°33'713.8
2018-May-15 13:00N 45°20' E 012°30'510.1
2018-May-15 12:30N 45°25' E 012°27'3 6.6
2018-May-15 12:00N 45°25' E 012°22'3 5.1
2018-May-15 11:30N 45°26' E 012°19'0 0.7
2018-May-15 10:59N 45°26' E 012°18'0 0.0
2018-May-15 10:29N 45°26' E 012°18'0 0.0
2018-May-15 09:59N 45°26' E 012°18'0 0.0
2018-May-15 09:29N 45°26' E 012°18'0 0.0
2018-May-15 08:59N 45°26' E 012°18'0 0.0
2018-May-15 08:29N 45°26' E 012°18'0 0.0
2018-May-15 07:59N 45°26' E 012°18'0 0.0
2018-May-15 07:29N 45°26' E 012°18'0 0.0
2018-May-15 06:59N 45°26' E 012°18'0 0.0
2018-May-15 06:29N 45°26' E 012°18'0 0.0
2018-May-15 05:59N 45°26' E 012°18'0 0.0
2018-May-15 05:29N 45°26' E 012°18'0 0.0
2018-May-15 04:59N 45°26' E 012°18'0 0.0
2018-May-15 04:29N 45°26' E 012°18'0 0.0
2018-May-15 03:59N 45°26' E 012°18'0 0.0
2018-May-15 03:29N 45°26' E 012°18'0 0.0
2018-May-15 02:59N 45°26' E 012°18'0 0.0
2018-May-15 02:29N 45°26' E 012°18'0 0.0
2018-May-15 01:59N 45°26' E 012°18'0 0.0
2018-May-15 01:29N 45°26' E 012°18'0 0.0
2018-May-15 00:59N 45°26' E 012°18'0 0.0
2018-May-15 00:29N 45°26' E 012°18'0 0.0
2018-May-14 23:59N 45°26' E 012°18'0 0.0
2018-May-14 23:29N 45°26' E 012°18'0 0.0
2018-May-14 22:59N 45°26' E 012°18'0 0.0
2018-May-14 22:29N 45°26' E 012°18'0 0.0
2018-May-14 21:59N 45°26' E 012°18'0 0.0
2018-May-14 21:29N 45°26' E 012°18'0 0.0
2018-May-14 20:59N 45°26' E 012°18'0 0.0
2018-May-14 20:29N 45°26' E 012°18'0 0.0
2018-May-14 19:59N 45°26' E 012°18'0 0.0
2018-May-14 19:29N 45°26' E 012°18'0 0.0
2018-May-14 18:59N 45°26' E 012°18'0 0.0
2018-May-14 18:29N 45°26' E 012°18'0 0.0
2018-May-14 17:59N 45°26' E 012°18'0 0.1
2018-May-14 17:29N 45°26' E 012°18'1 1.4
2018-May-14 17:00N 45°26' E 012°19'0 0.1
2018-May-14 16:30N 45°26' E 012°19'1 1.4
2018-May-14 15:58N 45°26' E 012°19'0 0.0
2018-May-14 15:28N 45°26' E 012°19'0 0.0
2018-May-14 14:58N 45°26' E 012°19'0 0.0
2018-May-14 14:28N 45°26' E 012°19'0 0.0
2018-May-14 13:58N 45°26' E 012°19'0 0.0
2018-May-14 13:28N 45°26' E 012°19'0 0.0
2018-May-14 12:58N 45°26' E 012°19'0 0.0
2018-May-14 12:28N 45°26' E 012°19'0 0.0
2018-May-14 11:55N 45°26' E 012°19'0 0.0
2018-May-14 11:28N 45°26' E 012°19'0 0.0
2018-May-14 10:58N 45°26' E 012°19'0 0.0
2018-May-14 10:28N 45°26' E 012°19'0 0.0
2018-May-14 09:58N 45°26' E 012°19'0 0.0
2018-May-14 09:28N 45°26' E 012°19'0 0.0
2018-May-14 08:58N 45°26' E 012°19'0 0.0
2018-May-14 08:28N 45°26' E 012°19'0 0.0
2018-May-14 07:58N 45°26' E 012°19'0 0.0
2018-May-14 07:28N 45°26' E 012°19'0 0.0
2018-May-14 06:58N 45°26' E 012°19'0 0.0
2018-May-14 06:28N 45°26' E 012°19'0 0.0
2018-May-14 05:58N 45°26' E 012°19'1 1.7
2018-May-14 05:30N 45°26' E 012°19'2 4.9
2018-May-14 05:00N 45°26' E 012°23'5 9.5
2018-May-14 04:30N 45°24' E 012°29'510.4
2018-May-14 04:00N 45°19' E 012°32'611.7
2018-May-14 03:30N 45°14' E 012°36'612.6
2018-May-14 03:00N 45°11' E 012°44'612.2
2018-May-14 02:30N 45°06' E 012°49'612.2
2018-May-14 02:00N 45°00' E 012°53'612.2
2018-May-14 01:30N 44°55' E 012°55'510.9
2018-May-14 01:00N 44°53' E 013°02'510.1
2018-May-14 00:30N 44°57' E 013°06'611.9
2018-May-14 00:00N 45°03' E 013°04'611.7
2018-May-13 23:30N 45°09' E 013°04'611.6
2018-May-13 23:00N 45°15' E 013°03'611.6
2018-May-13 22:30N 45°20' E 013°02'611.3
2018-May-13 22:00N 45°25' E 013°06'612.0
2018-May-13 21:30N 45°30' E 013°12'611.9
2018-May-13 21:00N 45°33' E 013°19'612.4
2018-May-13 20:30N 45°36' E 013°27'612.0
2018-May-13 20:00N 45°38' E 013°35'612.0
2018-May-13 19:30N 45°34' E 013°42'2 3.3
2018-May-13 19:00N 45°33' E 013°44'0 0.0
2018-May-13 18:30N 45°33' E 013°44'0 0.0
2018-May-13 18:00N 45°33' E 013°44'0 0.0
2018-May-13 17:30N 45°33' E 013°44'0 0.0
2018-May-13 16:57N 45°33' E 013°44'0 0.0
2018-May-13 16:12N 45°33' E 013°44'0 0.0
2018-May-13 16:00N 45°33' E 013°44'0 0.0
2018-May-13 15:30N 45°33' E 013°44'0 0.0
2018-May-13 14:57N 45°33' E 013°44'0 0.0
2018-May-13 14:27N 45°33' E 013°44'0 0.0
2018-May-13 13:54N 45°33' E 013°44'0 0.0
2018-May-13 13:24N 45°33' E 013°44'0 0.0
2018-May-13 13:00N 45°33' E 013°44'0 0.0
2018-May-13 12:30N 45°33' E 013°44'0 0.0
2018-May-13 11:54N 45°33' E 013°44'0 0.0
2018-May-13 11:30N 45°33' E 013°44'0 0.0
2018-May-13 10:54N 45°33' E 013°44'0 0.0
2018-May-13 10:30N 45°33' E 013°44'0 0.0
2018-May-13 10:00N 45°33' E 013°44'0 0.0
2018-May-13 09:27N 45°33' E 013°44'0 0.0
2018-May-13 08:57N 45°33' E 013°44'0 0.0
2018-May-13 08:21N 45°33' E 013°44'0 0.0
2018-May-13 07:57N 45°33' E 013°44'0 0.0
2018-May-13 07:15N 45°33' E 013°44'0 0.0
2018-May-13 07:00N 45°33' E 013°44'0 0.0
2018-May-13 06:30N 45°33' E 013°44'0 0.0
2018-May-13 06:00N 45°33' E 013°44'1 1.0
2018-May-13 05:30N 45°33' E 013°43'4 7.2
2018-May-13 05:00N 45°34' E 013°38'714.4
2018-May-13 04:30N 45°33' E 013°28'714.9
2018-May-13 04:00N 45°29' E 013°19'714.6
2018-May-13 03:30N 45°23' E 013°12'714.8
2018-May-13 03:00N 45°16' E 013°13'714.9
2018-May-13 02:30N 45°09' E 013°16'714.9
2018-May-13 02:00N 45°02' E 013°20'714.8
2018-May-13 01:30N 44°56' E 013°25'714.7
2018-May-13 01:00N 44°49' E 013°30'714.7
2018-May-13 00:30N 44°43' E 013°35'815.3
2018-May-13 00:00N 44°36' E 013°41'815.1
2018-May-12 23:30N 44°30' E 013°47'815.3
2018-May-12 23:00N 44°24' E 013°53'816.0
2018-May-12 22:30N 44°17' E 013°59'815.3
2018-May-12 22:00N 44°10' E 014°04'10514.9
2018-May-12 14:59N 42°46' E 015°30'  
2018-May-09 17:39N 37°17' E 023°39'318.4
2018-May-09 17:29N 37°20' E 023°39'1118.4
2018-May-09 16:53N 37°31' E 023°41'718.1
2018-May-09 16:28N 37°38' E 023°42'817.9
2018-May-09 16:00N 37°46' E 023°38'917.6
2018-May-09 15:30N 37°55' E 023°36'2 3.6
2018-May-09 14:56N 37°56' E 023°38'0 0.0
2018-May-09 14:29N 37°56' E 023°38'0 0.0
2018-May-09 13:59N 37°56' E 023°38'0 0.0
2018-May-09 13:29N 37°56' E 023°38'0 0.0
2018-May-09 12:59N 37°56' E 023°38'0 0.0
2018-May-09 12:29N 37°56' E 023°38'0 0.0
2018-May-09 11:59N 37°56' E 023°38'0 0.0
2018-May-09 11:29N 37°56' E 023°38'0 0.0
2018-May-09 10:59N 37°56' E 023°38'0 0.0
2018-May-09 10:29N 37°56' E 023°38'0 0.0
2018-May-09 09:59N 37°56' E 023°38'0 0.0
2018-May-09 09:29N 37°56' E 023°38'0 0.0
2018-May-09 08:59N 37°56' E 023°38'0 0.0
2018-May-09 08:29N 37°56' E 023°38'0 0.0
2018-May-09 07:59N 37°56' E 023°38'0 0.0
2018-May-09 07:29N 37°56' E 023°38'0 0.0
2018-May-09 06:59N 37°56' E 023°38'0 0.0
2018-May-09 06:29N 37°56' E 023°38'0 0.0
2018-May-09 05:59N 37°56' E 023°38'0 0.0
2018-May-09 05:29N 37°56' E 023°38'0 0.0
2018-May-09 04:59N 37°56' E 023°38'0 0.0
2018-May-09 04:29N 37°56' E 023°38'0 0.0
2018-May-09 03:59N 37°56' E 023°38'1 2.4
2018-May-09 03:30N 37°56' E 023°37'2 3.4
2018-May-09 03:00N 37°54' E 023°37'5 9.9
2018-May-09 02:30N 37°50' E 023°39'612.7
2018-May-09 02:00N 37°44' E 023°43'612.8
2018-May-09 01:30N 37°38' E 023°46'612.7
2018-May-09 01:00N 37°32' E 023°46'713.0
2018-May-09 00:30N 37°25' E 023°47'612.8
2018-May-09 00:00N 37°19' E 023°45'713.2
2018-May-08 23:30N 37°13' E 023°43'52 8.7
2018-May-08 17:28N 37°33' E 024°44'713.1
2018-May-08 16:56N 37°33' E 024°53'712.6
2018-May-08 16:24N 37°31' E 025°01'512.9
2018-May-08 16:01N 37°30' E 025°07'713.0
2018-May-08 15:31N 37°28' E 025°15'3 6.2
2018-May-08 14:58N 37°27' E 025°19'0 0.1
2018-May-08 14:22N 37°28' E 025°19'0 0.0
2018-May-08 13:49N 37°28' E 025°19'0 0.0
2018-May-08 13:28N 37°28' E 025°19'0 0.0
2018-May-08 12:55N 37°28' E 025°19'0 0.0
2018-May-08 12:28N 37°28' E 025°19'0 0.0
2018-May-08 11:58N 37°28' E 025°19'0 0.0
2018-May-08 11:28N 37°28' E 025°19'0 0.0
2018-May-08 10:58N 37°28' E 025°19'0 0.0
2018-May-08 10:28N 37°28' E 025°19'0 0.0
2018-May-08 09:58N 37°28' E 025°19'0 0.0
2018-May-08 09:25N 37°28' E 025°19'0 0.0
2018-May-08 08:58N 37°28' E 025°19'0 0.0
2018-May-08 08:28N 37°28' E 025°19'0 0.0
2018-May-08 07:55N 37°28' E 025°19'0 0.0
2018-May-08 07:28N 37°28' E 025°19'0 0.0
2018-May-08 06:58N 37°28' E 025°19'0 0.0
2018-May-08 06:28N 37°28' E 025°19'0 0.0
2018-May-08 05:58N 37°28' E 025°19'0 0.0
2018-May-08 05:28N 37°28' E 025°19'0 0.0
2018-May-08 05:00N 37°28' E 025°19'0 0.1
2018-May-08 04:30N 37°28' E 025°19'1 2.1
2018-May-08 04:00N 37°27' E 025°18'511.0
2018-May-08 03:30N 37°27' E 025°11'613.0
2018-May-08 03:00N 37°22' E 025°07'712.9
2018-May-08 02:30N 37°16' E 025°03'612.3
2018-May-08 02:00N 37°11' E 024°60'  
Track history (hours):
 
Tides and Currents Weather Stations Pressure Air Temp Water Temp Dewpoint Dewpoint Depression Visibility Wind Speed Wind Dir Waves Ship Positions

Legend Of The Seas

Operator: Royal Caribbean Cruises Ltd

Last reported at 2018-May-15 17:32 UTC. Time now 2018-May-26 13:57 UTC.
Position N 44°17' E 013°11'.
Warning: this ship's position is 10 days out of date.

Type: Passenger vessel. MMSI: 311378000.

Date/timePositionNaut miles runAvg speedWind from/ knotsBaromVisibWave heightAir tempDewpointWater temp
2018-May-15 17:32N 44°17' E 013°11'216.2
2018-May-15 17:27N 44°18' E 013°10'716.3
2018-May-15 17:00N 44°25' E 013°07'815.7
2018-May-15 16:30N 44°33' E 013°04'815.9
2018-May-15 16:00N 44°40' E 013°01'815.9
2018-May-15 15:30N 44°48' E 012°57'816.0
2018-May-15 15:00N 44°55' E 012°51'815.8
2018-May-15 14:30N 45°02' E 012°46'815.5
2018-May-15 14:00N 45°08' E 012°39'714.7
2018-May-15 13:30N 45°13' E 012°33'713.8
2018-May-15 13:00N 45°20' E 012°30'510.1
2018-May-15 12:30N 45°25' E 012°27'3 6.6
2018-May-15 12:00N 45°25' E 012°22'3 5.1
2018-May-15 11:30N 45°26' E 012°19'0 0.7
2018-May-15 10:59N 45°26' E 012°18'0 0.0
2018-May-15 10:29N 45°26' E 012°18'0 0.0
2018-May-15 09:59N 45°26' E 012°18'0 0.0
2018-May-15 09:29N 45°26' E 012°18'0 0.0
2018-May-15 08:59N 45°26' E 012°18'0 0.0
2018-May-15 08:29N 45°26' E 012°18'0 0.0
2018-May-15 07:59N 45°26' E 012°18'0 0.0
2018-May-15 07:29N 45°26' E 012°18'0 0.0
2018-May-15 06:59N 45°26' E 012°18'0 0.0
2018-May-15 06:29N 45°26' E 012°18'0 0.0
2018-May-15 05:59N 45°26' E 012°18'0 0.0
2018-May-15 05:29N 45°26' E 012°18'0 0.0
2018-May-15 04:59N 45°26' E 012°18'0 0.0
2018-May-15 04:29N 45°26' E 012°18'0 0.0
2018-May-15 03:59N 45°26' E 012°18'0 0.0
2018-May-15 03:29N 45°26' E 012°18'0 0.0
2018-May-15 02:59N 45°26' E 012°18'0 0.0
2018-May-15 02:29N 45°26' E 012°18'0 0.0
2018-May-15 01:59N 45°26' E 012°18'0 0.0
2018-May-15 01:29N 45°26' E 012°18'0 0.0
2018-May-15 00:59N 45°26' E 012°18'0 0.0
2018-May-15 00:29N 45°26' E 012°18'0 0.0
2018-May-14 23:59N 45°26' E 012°18'0 0.0
2018-May-14 23:29N 45°26' E 012°18'0 0.0
2018-May-14 22:59N 45°26' E 012°18'0 0.0
2018-May-14 22:29N 45°26' E 012°18'0 0.0
2018-May-14 21:59N 45°26' E 012°18'0 0.0
2018-May-14 21:29N 45°26' E 012°18'0 0.0
2018-May-14 20:59N 45°26' E 012°18'0 0.0
2018-May-14 20:29N 45°26' E 012°18'0 0.0
2018-May-14 19:59N 45°26' E 012°18'0 0.0
2018-May-14 19:29N 45°26' E 012°18'0 0.0
2018-May-14 18:59N 45°26' E 012°18'0 0.0
2018-May-14 18:29N 45°26' E 012°18'0 0.0
2018-May-14 17:59N 45°26' E 012°18'0 0.1
2018-May-14 17:29N 45°26' E 012°18'1 1.4
2018-May-14 17:00N 45°26' E 012°19'0 0.1
2018-May-14 16:30N 45°26' E 012°19'1 1.4
2018-May-14 15:58N 45°26' E 012°19'0 0.0
2018-May-14 15:28N 45°26' E 012°19'0 0.0
2018-May-14 14:58N 45°26' E 012°19'0 0.0
2018-May-14 14:28N 45°26' E 012°19'0 0.0
2018-May-14 13:58N 45°26' E 012°19'0 0.0
2018-May-14 13:28N 45°26' E 012°19'0 0.0
2018-May-14 12:58N 45°26' E 012°19'0 0.0
2018-May-14 12:28N 45°26' E 012°19'0 0.0
2018-May-14 11:55N 45°26' E 012°19'0 0.0
2018-May-14 11:28N 45°26' E 012°19'0 0.0
2018-May-14 10:58N 45°26' E 012°19'0 0.0
2018-May-14 10:28N 45°26' E 012°19'0 0.0
2018-May-14 09:58N 45°26' E 012°19'0 0.0
2018-May-14 09:28N 45°26' E 012°19'0 0.0
2018-May-14 08:58N 45°26' E 012°19'0 0.0
2018-May-14 08:28N 45°26' E 012°19'0 0.0
2018-May-14 07:58N 45°26' E 012°19'0 0.0
2018-May-14 07:28N 45°26' E 012°19'0 0.0
2018-May-14 06:58N 45°26' E 012°19'0 0.0
2018-May-14 06:28N 45°26' E 012°19'0 0.0
2018-May-14 05:58N 45°26' E 012°19'1 1.7
2018-May-14 05:30N 45°26' E 012°19'2 4.9
2018-May-14 05:00N 45°26' E 012°23'5 9.5
2018-May-14 04:30N 45°24' E 012°29'510.4
2018-May-14 04:00N 45°19' E 012°32'611.7
2018-May-14 03:30N 45°14' E 012°36'612.6
2018-May-14 03:00N 45°11' E 012°44'612.2
2018-May-14 02:30N 45°06' E 012°49'612.2
2018-May-14 02:00N 45°00' E 012°53'612.2
2018-May-14 01:30N 44°55' E 012°55'510.9
2018-May-14 01:00N 44°53' E 013°02'510.1
2018-May-14 00:30N 44°57' E 013°06'611.9
2018-May-14 00:00N 45°03' E 013°04'611.7
2018-May-13 23:30N 45°09' E 013°04'611.6
2018-May-13 23:00N 45°15' E 013°03'611.6
2018-May-13 22:30N 45°20' E 013°02'611.3
2018-May-13 22:00N 45°25' E 013°06'612.0
2018-May-13 21:30N 45°30' E 013°12'611.9
2018-May-13 21:00N 45°33' E 013°19'612.4
2018-May-13 20:30N 45°36' E 013°27'612.0
2018-May-13 20:00N 45°38' E 013°35'612.0
2018-May-13 19:30N 45°34' E 013°42'2 3.3
2018-May-13 19:00N 45°33' E 013°44'0 0.0
2018-May-13 18:30N 45°33' E 013°44'0 0.0
2018-May-13 18:00N 45°33' E 013°44'0 0.0
2018-May-13 17:30N 45°33' E 013°44'0 0.0
2018-May-13 16:57N 45°33' E 013°44'0 0.0
2018-May-13 16:12N 45°33' E 013°44'0 0.0
2018-May-13 16:00N 45°33' E 013°44'0 0.0
2018-May-13 15:30N 45°33' E 013°44'0 0.0
2018-May-13 14:57N 45°33' E 013°44'0 0.0
2018-May-13 14:27N 45°33' E 013°44'0 0.0
2018-May-13 13:54N 45°33' E 013°44'0 0.0
2018-May-13 13:24N 45°33' E 013°44'0 0.0
2018-May-13 13:00N 45°33' E 013°44'0 0.0
2018-May-13 12:30N 45°33' E 013°44'0 0.0
2018-May-13 11:54N 45°33' E 013°44'0 0.0
2018-May-13 11:30N 45°33' E 013°44'0 0.0
2018-May-13 10:54N 45°33' E 013°44'0 0.0
2018-May-13 10:30N 45°33' E 013°44'0 0.0
2018-May-13 10:00N 45°33' E 013°44'0 0.0
2018-May-13 09:27N 45°33' E 013°44'0 0.0
2018-May-13 08:57N 45°33' E 013°44'0 0.0
2018-May-13 08:21N 45°33' E 013°44'0 0.0
2018-May-13 07:57N 45°33' E 013°44'0 0.0
2018-May-13 07:15N 45°33' E 013°44'0 0.0
2018-May-13 07:00N 45°33' E 013°44'0 0.0
2018-May-13 06:30N 45°33' E 013°44'0 0.0
2018-May-13 06:00N 45°33' E 013°44'1 1.0
2018-May-13 05:30N 45°33' E 013°43'4 7.2
2018-May-13 05:00N 45°34' E 013°38'714.4
2018-May-13 04:30N 45°33' E 013°28'714.9
2018-May-13 04:00N 45°29' E 013°19'714.6
2018-May-13 03:30N 45°23' E 013°12'714.8
2018-May-13 03:00N 45°16' E 013°13'714.9
2018-May-13 02:30N 45°09' E 013°16'714.9
2018-May-13 02:00N 45°02' E 013°20'714.8
2018-May-13 01:30N 44°56' E 013°25'714.7
2018-May-13 01:00N 44°49' E 013°30'714.7
2018-May-13 00:30N 44°43' E 013°35'815.3
2018-May-13 00:00N 44°36' E 013°41'815.1
2018-May-12 23:30N 44°30' E 013°47'815.3
2018-May-12 23:00N 44°24' E 013°53'816.0
2018-May-12 22:30N 44°17' E 013°59'815.3
2018-May-12 22:00N 44°10' E 014°04'10514.9
2018-May-12 14:59N 42°46' E 015°30'  
2018-May-09 17:39N 37°17' E 023°39'318.4
2018-May-09 17:29N 37°20' E 023°39'1118.4
2018-May-09 16:53N 37°31' E 023°41'718.1
2018-May-09 16:28N 37°38' E 023°42'817.9
2018-May-09 16:00N 37°46' E 023°38'917.6
2018-May-09 15:30N 37°55' E 023°36'2 3.6
2018-May-09 14:56N 37°56' E 023°38'0 0.0
2018-May-09 14:29N 37°56' E 023°38'0 0.0
2018-May-09 13:59N 37°56' E 023°38'0 0.0
2018-May-09 13:29N 37°56' E 023°38'0 0.0
2018-May-09 12:59N 37°56' E 023°38'0 0.0
2018-May-09 12:29N 37°56' E 023°38'0 0.0
2018-May-09 11:59N 37°56' E 023°38'0 0.0
2018-May-09 11:29N 37°56' E 023°38'0 0.0
2018-May-09 10:59N 37°56' E 023°38'0 0.0
2018-May-09 10:29N 37°56' E 023°38'0 0.0
2018-May-09 09:59N 37°56' E 023°38'0 0.0
2018-May-09 09:29N 37°56' E 023°38'0 0.0
2018-May-09 08:59N 37°56' E 023°38'0 0.0
2018-May-09 08:29N 37°56' E 023°38'0 0.0
2018-May-09 07:59N 37°56' E 023°38'0 0.0
2018-May-09 07:29N 37°56' E 023°38'0 0.0
2018-May-09 06:59N 37°56' E 023°38'0 0.0
2018-May-09 06:29N 37°56' E 023°38'0 0.0
2018-May-09 05:59N 37°56' E 023°38'0 0.0
2018-May-09 05:29N 37°56' E 023°38'0 0.0
2018-May-09 04:59N 37°56' E 023°38'0 0.0
2018-May-09 04:29N 37°56' E 023°38'0 0.0
2018-May-09 03:59N 37°56' E 023°38'1 2.4
2018-May-09 03:30N 37°56' E 023°37'2 3.4
2018-May-09 03:00N 37°54' E 023°37'5 9.9
2018-May-09 02:30N 37°50' E 023°39'612.7
2018-May-09 02:00N 37°44' E 023°43'612.8
2018-May-09 01:30N 37°38' E 023°46'612.7
2018-May-09 01:00N 37°32' E 023°46'713.0
2018-May-09 00:30N 37°25' E 023°47'612.8
2018-May-09 00:00N 37°19' E 023°45'713.2
2018-May-08 23:30N 37°13' E 023°43'52 8.7
2018-May-08 17:28N 37°33' E 024°44'713.1
2018-May-08 16:56N 37°33' E 024°53'712.6
2018-May-08 16:24N 37°31' E 025°01'512.9
2018-May-08 16:01N 37°30' E 025°07'713.0
2018-May-08 15:31N 37°28' E 025°15'3 6.2
2018-May-08 14:58N 37°27' E 025°19'0 0.1
2018-May-08 14:22N 37°28' E 025°19'0 0.0
2018-May-08 13:49N 37°28' E 025°19'0 0.0
2018-May-08 13:28N 37°28' E 025°19'0 0.0
2018-May-08 12:55N 37°28' E 025°19'0 0.0
2018-May-08 12:28N 37°28' E 025°19'0 0.0
2018-May-08 11:58N 37°28' E 025°19'0 0.0
2018-May-08 11:28N 37°28' E 025°19'0 0.0
2018-May-08 10:58N 37°28' E 025°19'0 0.0
2018-May-08 10:28N 37°28' E 025°19'0 0.0
2018-May-08 09:58N 37°28' E 025°19'0 0.0
2018-May-08 09:25N 37°28' E 025°19'0 0.0
2018-May-08 08:58N 37°28' E 025°19'0 0.0
2018-May-08 08:28N 37°28' E 025°19'0 0.0
2018-May-08 07:55N 37°28' E 025°19'0 0.0
2018-May-08 07:28N 37°28' E 025°19'0 0.0
2018-May-08 06:58N 37°28' E 025°19'0 0.0
2018-May-08 06:28N 37°28' E 025°19'0 0.0
2018-May-08 05:58N 37°28' E 025°19'0 0.0
2018-May-08 05:28N 37°28' E 025°19'0 0.0
2018-May-08 05:00N 37°28' E 025°19'0 0.1
2018-May-08 04:30N 37°28' E 025°19'1 2.1
2018-May-08 04:00N 37°27' E 025°18'511.0
2018-May-08 03:30N 37°27' E 025°11'613.0
2018-May-08 03:00N 37°22' E 025°07'712.9
2018-May-08 02:30N 37°16' E 025°03'612.3
2018-May-08 02:00N 37°11' E 024°60'  

Dump ship's entire track history